createdAt,value
2017-04-28T00:00:53.204Z,100376.28
2017-04-28T00:03:24.164Z,100370.17
2017-04-28T00:06:02.869Z,100375.66
2017-04-28T00:08:32.839Z,100371.52
2017-04-28T00:11:03.304Z,100361.63
2017-04-28T00:13:32.784Z,100361.57
2017-04-28T00:16:03.576Z,100356.91
2017-04-28T00:18:33.420Z,100354.12
2017-04-28T00:21:04.100Z,100356.80
2017-04-28T00:23:34.016Z,100357.07
2017-04-28T00:26:05.891Z,100358.80
2017-04-28T00:28:36.890Z,100350.27
2017-04-28T00:31:06.768Z,100351.05
2017-04-28T00:33:37.545Z,100351.23
2017-04-28T00:36:06.972Z,100343.25
2017-04-28T00:38:37.840Z,100339.87
2017-04-28T00:41:07.882Z,100339.33
2017-04-28T00:43:38.736Z,100337.39
2017-04-28T00:46:09.276Z,100336.81
2017-04-28T00:48:39.066Z,100342.53
2017-04-28T00:51:08.491Z,100343.25
2017-04-28T00:53:38.420Z,100346.67
2017-04-28T00:56:08.206Z,100341.68
2017-04-28T00:58:37.559Z,100342.47
2017-04-28T01:01:07.647Z,100335.20
2017-04-28T01:03:38.615Z,100334.39
2017-04-28T01:06:09.506Z,100331.09
2017-04-28T01:08:41.128Z,100330.72
2017-04-28T01:11:11.780Z,100332.95
2017-04-28T01:13:42.159Z,100330.26
2017-04-28T01:16:12.574Z,100338.30
2017-04-28T01:18:42.484Z,100332.80
2017-04-28T01:21:12.886Z,100326.95
2017-04-28T01:23:43.064Z,100330.03
2017-04-28T01:26:15.517Z,100332.20
2017-04-28T01:28:45.608Z,100328.98
2017-04-28T01:31:14.846Z,100326.72
2017-04-28T01:33:44.462Z,100322.09
2017-04-28T01:36:15.023Z,100329.66
2017-04-28T01:38:44.806Z,100325.94
2017-04-28T01:41:14.751Z,100318.14
2017-04-28T01:43:45.130Z,100317.67
2017-04-28T01:46:14.731Z,100319.81
2017-04-28T01:48:44.775Z,100318.38
2017-04-28T01:51:14.012Z,100320.94
2017-04-28T01:53:44.183Z,100319.97
2017-04-28T01:56:14.039Z,100323.80
2017-04-28T01:58:45.479Z,100319.23
2017-04-28T02:01:19.368Z,100319.91
2017-04-28T02:03:49.536Z,100323.02
2017-04-28T02:06:19.137Z,100327.35
2017-04-28T02:08:49.936Z,100328.55
2017-04-28T02:11:19.728Z,100328.72
2017-04-28T02:13:50.172Z,100323.04
2017-04-28T02:16:20.060Z,100327.20
2017-04-28T02:18:50.907Z,100326.78
2017-04-28T02:21:20.404Z,100324.23
2017-04-28T02:23:51.083Z,100325.80
2017-04-28T02:26:20.943Z,100317.83
2017-04-28T02:28:50.372Z,100323.44
2017-04-28T02:31:22.117Z,100321.83
2017-04-28T02:33:51.661Z,100321.06
2017-04-28T02:36:21.798Z,100320.73
2017-04-28T02:38:51.343Z,100320.81
2017-04-28T02:41:20.527Z,100323.02
2017-04-28T02:43:49.761Z,100323.45
2017-04-28T02:46:19.603Z,100330.58
2017-04-28T02:48:48.642Z,100324.72
2017-04-28T02:51:17.670Z,100328.20
2017-04-28T02:53:46.767Z,100328.01
2017-04-28T02:56:15.799Z,100324.22
2017-04-28T02:58:44.826Z,100324.21
2017-04-28T03:01:13.874Z,100326.28
2017-04-28T03:03:42.902Z,100325.93
2017-04-28T03:06:11.930Z,100322.02
2017-04-28T03:08:41.728Z,100321.66
2017-04-28T03:11:11.499Z,100317.38
2017-04-28T03:13:40.532Z,100323.23
2017-04-28T03:16:09.578Z,100322.30
2017-04-28T03:18:38.606Z,100326.05
2017-04-28T03:21:07.630Z,100326.98
2017-04-28T03:23:36.686Z,100326.34
2017-04-28T03:26:05.710Z,100327.03
2017-04-28T03:28:35.484Z,100325.00
2017-04-28T03:31:04.526Z,100331.63
2017-04-28T03:33:34.298Z,100328.66
2017-04-28T03:36:03.323Z,100325.48
2017-04-28T03:38:33.127Z,100319.38
2017-04-28T03:41:02.159Z,100327.36
2017-04-28T03:43:31.191Z,100321.34
2017-04-28T03:46:00.241Z,100318.92
2017-04-28T03:48:29.283Z,100324.63
2017-04-28T03:50:58.310Z,100316.14
2017-04-28T03:53:27.371Z,100316.92
2017-04-28T03:55:56.403Z,100322.73
2017-04-28T03:58:26.173Z,100324.77
2017-04-28T04:00:55.234Z,100322.83
2017-04-28T04:03:24.275Z,100327.16
2017-04-28T04:05:53.316Z,100339.76
2017-04-28T04:08:22.374Z,100334.25
2017-04-28T04:10:51.406Z,100332.22
2017-04-28T04:13:20.448Z,100335.19
2017-04-28T04:15:49.514Z,100338.59
2017-04-28T04:18:18.543Z,100342.53
2017-04-28T04:20:47.590Z,100338.12
2017-04-28T04:23:16.640Z,100344.48
2017-04-28T04:25:45.682Z,100347.79
2017-04-28T04:28:14.715Z,100348.72
2017-04-28T04:30:43.774Z,100346.01
2017-04-28T04:33:12.806Z,100351.86
2017-04-28T04:35:41.834Z,100353.98
2017-04-28T04:38:11.831Z,100353.39
2017-04-28T04:40:40.879Z,100352.54
2017-04-28T04:43:09.930Z,100348.47
2017-04-28T04:45:38.982Z,100356.52
2017-04-28T04:48:08.042Z,100355.50
2017-04-28T04:50:37.071Z,100360.94
2017-04-28T04:53:06.131Z,100360.31
2017-04-28T04:55:35.165Z,100364.30
2017-04-28T04:58:04.194Z,100364.97
2017-04-28T05:00:33.243Z,100362.51
2017-04-28T05:03:02.267Z,100359.96
2017-04-28T05:05:31.299Z,100358.43
2017-04-28T05:08:00.370Z,100363.57
2017-04-28T05:10:29.404Z,100364.16
2017-04-28T05:12:58.434Z,100364.41
2017-04-28T05:15:27.490Z,100363.22
2017-04-28T05:17:56.519Z,100364.23
2017-04-28T05:20:25.581Z,100364.02
2017-04-28T05:22:54.638Z,100366.39
2017-04-28T05:25:23.674Z,100363.42
2017-04-28T05:27:52.702Z,100364.94
2017-04-28T05:30:21.752Z,100370.84
2017-04-28T05:32:51.399Z,100375.50
2017-04-28T05:35:20.426Z,100369.30
2017-04-28T05:37:49.478Z,100373.03
2017-04-28T05:40:18.511Z,100374.34
2017-04-28T05:42:47.550Z,100371.02
2017-04-28T05:45:16.602Z,100369.34
2017-04-28T05:47:45.643Z,100365.00
2017-04-28T05:50:14.674Z,100365.44
2017-04-28T05:52:43.718Z,100368.19
2017-04-28T05:55:12.750Z,100367.30
2017-04-28T05:57:41.786Z,100366.38
2017-04-28T06:00:11.583Z,100369.57
2017-04-28T06:02:40.614Z,100367.20
2017-04-28T06:05:09.647Z,100369.75
2017-04-28T06:07:38.698Z,100371.88
2017-04-28T06:10:08.468Z,100368.77
2017-04-28T06:12:37.501Z,100374.91
2017-04-28T06:15:07.312Z,100371.98
2017-04-28T06:17:37.083Z,100369.35
2017-04-28T06:20:07.141Z,100377.34
2017-04-28T06:22:36.921Z,100379.39
2017-04-28T06:25:05.954Z,100377.51
2017-04-28T06:27:35.746Z,100363.94
2017-04-28T06:30:04.784Z,100372.06
2017-04-28T06:32:33.844Z,100367.16
2017-04-28T06:35:03.650Z,100370.67
2017-04-28T06:37:32.694Z,100369.33
2017-04-28T06:40:01.729Z,100366.02
2017-04-28T06:42:30.798Z,100361.86
2017-04-28T06:44:59.831Z,100360.08
2017-04-28T06:47:29.621Z,100364.17
2017-04-28T06:49:58.687Z,100360.09
2017-04-28T06:52:27.727Z,100367.00
2017-04-28T06:54:56.775Z,100369.30
2017-04-28T06:57:25.850Z,100368.25
2017-04-28T06:59:54.896Z,100360.38
2017-04-28T07:02:23.959Z,100364.88
2017-04-28T07:04:53.015Z,100363.16
2017-04-28T07:07:22.071Z,100364.72
2017-04-28T07:09:51.107Z,100366.05
2017-04-28T07:12:20.907Z,100371.08
2017-04-28T07:14:49.946Z,100371.89
2017-04-28T07:17:18.983Z,100363.54
2017-04-28T07:19:48.042Z,100366.35
2017-04-28T07:22:17.078Z,100368.70
2017-04-28T07:24:46.891Z,100362.85
2017-04-28T07:27:15.962Z,100365.39
2017-04-28T07:29:44.996Z,100362.92
2017-04-28T07:32:14.029Z,100361.89
2017-04-28T07:34:43.082Z,100370.75
2017-04-28T07:37:12.862Z,100367.19
2017-04-28T07:39:41.891Z,100361.54
2017-04-28T07:42:10.954Z,100357.97
2017-04-28T07:44:39.986Z,100357.78
2017-04-28T07:47:15.550Z,100356.84
2017-04-28T07:49:44.590Z,100367.16
2017-04-28T07:52:13.626Z,100362.33
2017-04-28T07:54:43.430Z,100361.59
2017-04-28T07:57:13.200Z,100361.68
2017-04-28T07:59:42.242Z,100361.88
2017-04-28T08:02:12.041Z,100361.47
2017-04-28T08:04:41.083Z,100357.97
2017-04-28T08:07:10.121Z,100367.33
2017-04-28T08:09:39.183Z,100358.55
2017-04-28T08:12:08.219Z,100358.80
2017-04-28T08:14:37.257Z,100363.09
2017-04-28T08:17:07.072Z,100357.14
2017-04-28T08:19:36.110Z,100358.30
2017-04-28T08:22:05.161Z,100358.58
2017-04-28T08:24:34.226Z,100355.16
2017-04-28T08:27:03.999Z,100352.19
2017-04-28T08:29:33.055Z,100352.98
2017-04-28T08:32:02.105Z,100349.34
2017-04-28T08:34:31.169Z,100355.97
2017-04-28T08:37:00.214Z,100349.69
2017-04-28T08:39:30.017Z,100348.57
2017-04-28T08:41:59.058Z,100351.19
2017-04-28T08:44:28.128Z,100350.69
2017-04-28T08:46:57.926Z,100345.85
2017-04-28T08:49:27.725Z,100343.95
2017-04-28T08:51:56.780Z,100341.27
2017-04-28T08:54:25.822Z,100335.39
2017-04-28T08:56:54.865Z,100338.92
2017-04-28T08:59:23.922Z,100340.50
2017-04-28T09:01:53.709Z,100338.55
2017-04-28T09:04:22.764Z,100337.95
2017-04-28T09:06:51.802Z,100339.43
2017-04-28T09:09:20.875Z,100333.59
2017-04-28T09:11:49.916Z,100338.52
2017-04-28T09:14:19.695Z,100328.10
2017-04-28T09:16:48.756Z,100328.03
2017-04-28T09:19:17.812Z,100323.02
2017-04-28T09:21:47.617Z,100318.05
2017-04-28T09:24:16.659Z,100327.36
2017-04-28T09:26:45.723Z,100323.45
2017-04-28T09:29:15.515Z,100325.16
2017-04-28T09:31:44.571Z,100330.55
2017-04-28T09:34:13.641Z,100323.78
2017-04-28T09:36:42.695Z,100320.68
2017-04-28T09:39:11.791Z,100323.20
2017-04-28T09:41:40.835Z,100320.80
2017-04-28T09:44:09.901Z,100318.84
2017-04-28T09:46:39.696Z,100322.61
2017-04-28T09:49:08.734Z,100318.81
2017-04-28T09:51:37.790Z,100321.27
2017-04-28T09:54:06.838Z,100318.66
2017-04-28T09:56:35.878Z,100312.66
2017-04-28T09:59:04.935Z,100317.64
2017-04-28T10:01:33.976Z,100310.20
2017-04-28T10:04:03.776Z,100305.25
2017-04-28T10:06:32.827Z,100305.98
2017-04-28T10:09:01.879Z,100306.11
2017-04-28T10:11:31.665Z,100309.48
2017-04-28T10:14:00.741Z,100317.55
2017-04-28T10:16:29.786Z,100313.41
2017-04-28T10:18:59.576Z,100314.22
2017-04-28T10:21:28.631Z,100310.59
2017-04-28T10:23:57.698Z,100304.48
2017-04-28T10:26:27.495Z,100301.27
2017-04-28T10:28:57.282Z,100295.00
2017-04-28T10:31:26.350Z,100291.09
2017-04-28T10:33:55.391Z,100285.92
2017-04-28T10:36:24.440Z,100289.44
2017-04-28T10:38:53.503Z,100287.16
2017-04-28T10:41:22.542Z,100286.58
2017-04-28T10:43:51.602Z,100288.30
2017-04-28T10:46:20.643Z,100284.52
2017-04-28T10:48:49.716Z,100282.88
2017-04-28T10:51:18.759Z,100286.77
2017-04-28T10:53:47.811Z,100285.88
2017-04-28T10:56:16.865Z,100285.08
2017-04-28T10:58:46.650Z,100287.36
2017-04-28T11:01:15.721Z,100280.38
2017-04-28T11:03:44.766Z,100273.70
2017-04-28T11:06:14.575Z,100281.43
2017-04-28T11:08:44.361Z,100286.34
2017-04-28T11:11:13.411Z,100290.27
2017-04-28T11:13:43.043Z,100293.00
2017-04-28T11:16:12.090Z,100294.39
2017-04-28T11:18:41.903Z,100296.21
2017-04-28T11:21:11.695Z,100293.81
2017-04-28T11:23:40.736Z,100288.70
2017-04-28T11:26:09.790Z,100288.34
2017-04-28T11:28:39.417Z,100291.83
2017-04-28T11:31:08.494Z,100287.69
2017-04-28T11:33:37.540Z,100285.52
2017-04-28T11:36:06.594Z,100288.06
2017-04-28T11:38:36.396Z,100291.17
2017-04-28T11:41:05.438Z,100287.92
2017-04-28T11:43:34.514Z,100286.81
2017-04-28T11:46:03.554Z,100281.87
2017-04-28T11:48:32.599Z,100284.36
2017-04-28T11:51:01.667Z,100290.01
2017-04-28T11:53:30.707Z,100287.13
2017-04-28T11:55:59.762Z,100293.25
2017-04-28T11:58:29.545Z,100291.70
2017-04-28T12:00:58.603Z,100290.05
2017-04-28T12:03:27.646Z,100302.93
2017-04-28T12:05:56.717Z,100291.73
2017-04-28T12:08:25.760Z,100280.66
2017-04-28T12:10:55.562Z,100297.83
2017-04-28T12:13:24.623Z,100292.05
2017-04-28T12:15:53.667Z,100298.05
2017-04-28T12:18:23.450Z,100295.92
2017-04-28T12:20:52.520Z,100304.32
2017-04-28T12:23:21.574Z,100297.42
2017-04-28T12:25:50.627Z,100295.41
2017-04-28T12:28:19.691Z,100292.73
2017-04-28T12:30:48.744Z,100290.91
2017-04-28T12:33:18.531Z,100300.25
2017-04-28T12:35:47.615Z,100305.06
2017-04-28T12:38:16.662Z,100301.39
2017-04-28T12:40:45.710Z,100292.98
2017-04-28T12:43:14.799Z,100299.53
2017-04-28T12:45:43.843Z,100302.38
2017-04-28T12:48:13.636Z,100303.78
2017-04-28T12:50:42.724Z,100312.28
2017-04-28T12:53:11.770Z,100308.93
2017-04-28T12:55:40.816Z,100317.05
2017-04-28T12:58:09.886Z,100319.48
2017-04-28T13:00:38.925Z,100319.06
2017-04-28T13:03:08.714Z,100318.23
2017-04-28T13:05:37.784Z,100317.81
2017-04-28T13:08:06.827Z,100317.55
2017-04-28T13:10:36.613Z,100315.29
2017-04-28T13:13:05.694Z,100319.20
2017-04-28T13:15:34.740Z,100316.39
2017-04-28T13:18:04.531Z,100321.05
2017-04-28T13:20:33.639Z,100317.76
2017-04-28T13:23:03.430Z,100322.83
2017-04-28T13:25:32.481Z,100324.00
2017-04-28T13:28:01.966Z,100321.36
2017-04-28T13:30:31.008Z,100325.13
2017-04-28T13:33:00.242Z,100326.16
2017-04-28T13:35:30.063Z,100328.84
2017-04-28T13:37:59.844Z,100336.56
2017-04-28T13:40:28.891Z,100341.79
2017-04-28T13:42:57.977Z,100331.47
2017-04-28T13:45:27.031Z,100330.66
2017-04-28T13:47:56.839Z,100333.25
2017-04-28T13:50:25.922Z,100333.55
2017-04-28T13:52:54.963Z,100336.90
2017-04-28T13:55:24.744Z,100335.95
2017-04-28T13:57:53.863Z,100336.04
2017-04-28T14:00:23.678Z,100334.22
2017-04-28T14:02:53.478Z,100334.47
2017-04-28T14:05:22.538Z,100327.80
2017-04-28T14:07:51.607Z,100328.26
2017-04-28T14:10:20.787Z,100329.06
2017-04-28T14:12:50.568Z,100319.13
2017-04-28T14:15:19.621Z,100330.58
2017-04-28T14:17:48.664Z,100324.26
2017-04-28T14:20:17.706Z,100325.51
2017-04-28T14:22:46.752Z,100323.62
2017-04-28T14:25:15.804Z,100329.23
2017-04-28T14:27:44.850Z,100330.70
2017-04-28T14:30:13.899Z,100330.73
2017-04-28T14:32:42.943Z,100332.48
2017-04-28T14:35:12.735Z,100330.88
2017-04-28T14:37:41.809Z,100334.13
2017-04-28T14:40:10.855Z,100341.89
2017-04-28T14:42:40.639Z,100344.31
2017-04-28T14:45:09.693Z,100338.86
2017-04-28T14:47:38.747Z,100341.87
2017-04-28T14:50:07.788Z,100341.28
2017-04-28T14:52:36.832Z,100335.86
2017-04-28T14:55:05.883Z,100334.06
2017-04-28T14:57:34.931Z,100336.16
2017-04-28T15:00:05.499Z,100334.77
2017-04-28T15:02:34.555Z,100339.34
2017-04-28T15:05:05.274Z,100346.97
2017-04-28T15:07:34.319Z,100343.51
2017-04-28T15:10:03.368Z,100342.30
2017-04-28T15:12:32.411Z,100347.41
2017-04-28T15:15:01.451Z,100346.27
2017-04-28T15:17:33.918Z,100351.33
2017-04-28T15:20:02.980Z,100346.88
2017-04-28T15:22:32.023Z,100345.33
2017-04-28T15:25:08.031Z,100347.20
2017-04-28T15:27:37.207Z,100349.11
2017-04-28T15:30:06.263Z,100350.38
2017-04-28T15:32:39.039Z,100350.62
2017-04-28T15:35:08.079Z,100352.87
2017-04-28T15:37:43.040Z,100351.86
2017-04-28T15:40:12.079Z,100351.79
2017-04-28T15:42:41.115Z,100354.58
2017-04-28T15:45:10.174Z,100357.36
2017-04-28T15:47:39.219Z,100354.31
2017-04-28T15:50:08.264Z,100356.89
2017-04-28T15:52:42.140Z,100355.82
2017-04-28T15:55:11.275Z,100355.63
2017-04-28T15:57:41.056Z,100363.69
2017-04-28T16:00:10.103Z,100372.41
2017-04-28T16:02:39.153Z,100370.65
2017-04-28T16:05:08.207Z,100359.61
2017-04-28T16:07:37.247Z,100360.48
2017-04-28T16:10:06.314Z,100364.38
2017-04-28T16:12:35.400Z,100367.68
2017-04-28T16:15:12.693Z,100371.68
2017-04-28T16:17:41.736Z,100368.80
2017-04-28T16:20:11.525Z,100362.23
2017-04-28T16:22:40.571Z,100366.48
2017-04-28T16:25:09.623Z,100368.02
2017-04-28T16:27:38.672Z,100367.30
2017-04-28T16:30:07.716Z,100367.08
2017-04-28T16:32:36.768Z,100376.26
2017-04-28T16:35:05.808Z,100370.25
2017-04-28T16:37:34.896Z,100370.67
2017-04-28T16:40:03.971Z,100369.53
2017-04-28T16:42:33.014Z,100370.88
2017-04-28T16:45:02.075Z,100370.72
2017-04-28T16:47:31.111Z,100371.76
2017-04-28T16:50:00.891Z,100369.94
2017-04-28T16:52:29.942Z,100373.02
2017-04-28T16:54:58.983Z,100376.86
2017-04-28T16:57:28.039Z,100380.22
2017-04-28T16:59:57.112Z,100380.63
2017-04-28T17:02:26.175Z,100381.41
2017-04-28T17:04:55.234Z,100384.36
2017-04-28T17:07:24.287Z,100388.62
2017-04-28T17:09:53.339Z,100387.94
2017-04-28T17:12:22.393Z,100386.16
2017-04-28T17:14:51.440Z,100385.09
2017-04-28T17:17:20.495Z,100396.03
2017-04-28T17:19:49.572Z,100396.39
2017-04-28T17:22:18.615Z,100399.81
2017-04-28T17:24:47.677Z,100396.42
2017-04-28T17:27:16.716Z,100385.33
2017-04-28T17:29:45.763Z,100387.94
2017-04-28T17:32:14.811Z,100390.66
2017-04-28T17:34:43.862Z,100390.70
2017-04-28T17:37:12.910Z,100385.41
2017-04-28T17:39:42.708Z,100387.98
2017-04-28T17:42:11.754Z,100392.46
2017-04-28T17:44:40.811Z,100396.14
2017-04-28T17:47:10.595Z,100397.74
2017-04-28T17:49:42.775Z,100397.25
2017-04-28T17:52:11.819Z,100398.24
2017-04-28T17:54:41.783Z,100400.77
2017-04-28T17:57:10.821Z,100401.11
2017-04-28T17:59:39.866Z,100404.52
2017-04-28T18:02:08.914Z,100416.11
2017-04-28T18:04:37.966Z,100413.96
2017-04-28T18:07:07.015Z,100407.00
2017-04-28T18:09:36.061Z,100412.85
2017-04-28T18:12:05.100Z,100416.67
2017-04-28T18:14:34.147Z,100414.27
2017-04-28T18:17:03.193Z,100417.48
2017-04-28T18:19:32.243Z,100419.62
2017-04-28T18:22:01.284Z,100421.22
2017-04-28T18:24:30.323Z,100428.45
2017-04-28T18:26:59.377Z,100425.73
2017-04-28T18:29:28.419Z,100439.34
2017-04-28T18:31:57.459Z,100436.08
2017-04-28T18:34:26.499Z,100440.55
2017-04-28T18:36:55.741Z,100441.84
2017-04-28T18:39:24.856Z,100443.03
2017-04-28T18:41:53.911Z,100447.42
2017-04-28T18:44:23.058Z,100452.42
2017-04-28T18:46:52.098Z,100455.52
2017-04-28T18:49:21.159Z,100463.27
2017-04-28T18:51:50.292Z,100464.56
2017-04-28T18:54:21.323Z,100473.64
2017-04-28T18:56:50.490Z,100472.52
2017-04-28T18:59:19.538Z,100479.57
2017-04-28T19:01:49.366Z,100483.10
2017-04-28T19:04:21.887Z,100483.19
2017-04-28T19:06:50.929Z,100484.39
2017-04-28T19:09:20.711Z,100488.17
2017-04-28T19:11:49.783Z,100491.19
2017-04-28T19:14:18.824Z,100491.06
2017-04-28T19:16:48.606Z,100493.68
2017-04-28T19:19:17.656Z,100494.92
2017-04-28T19:21:46.719Z,100504.69
2017-04-28T19:24:16.504Z,100501.27
2017-04-28T19:26:45.558Z,100507.38
2017-04-28T19:29:14.606Z,100506.27
2017-04-28T19:31:43.662Z,100508.17
2017-04-28T19:36:52.443Z,100514.73
2017-04-28T19:39:21.511Z,100515.59
2017-04-28T19:41:50.550Z,100515.97
2017-04-28T19:44:20.342Z,100513.58
2017-04-28T19:46:49.398Z,100521.13
2017-04-28T19:49:18.436Z,100525.92
2017-04-28T19:51:47.504Z,100517.09
2017-04-28T19:54:16.566Z,100524.08
2017-04-28T19:56:45.618Z,100530.55
2017-04-28T19:59:14.658Z,100535.52
2017-04-28T20:01:43.701Z,100524.78
2017-04-28T20:04:12.756Z,100532.46
2017-04-28T20:06:41.792Z,100532.58
2017-04-28T20:09:10.851Z,100535.09
2017-04-28T20:11:39.887Z,100547.46
2017-04-28T20:14:08.946Z,100552.41
2017-04-28T20:16:38.011Z,100546.70
2017-04-28T20:19:07.046Z,100552.30
2017-04-28T20:21:36.087Z,100552.47
2017-04-28T20:24:05.891Z,100551.20
2017-04-28T20:26:34.938Z,100558.83
2017-04-28T20:29:03.994Z,100554.52
2017-04-28T20:31:33.822Z,100563.80
2017-04-28T20:34:02.858Z,100563.48
2017-04-28T20:36:31.925Z,100556.85
2017-04-28T20:39:00.958Z,100555.03
2017-04-28T20:41:30.037Z,100555.36
2017-04-28T20:43:59.098Z,100556.42
2017-04-28T20:46:28.135Z,100556.63
2017-04-28T20:48:59.203Z,100549.89
2017-04-28T20:51:28.242Z,100553.23
2017-04-28T20:53:57.282Z,100555.35
2017-04-28T20:56:26.421Z,100549.98
2017-04-28T20:58:55.529Z,100552.09
2017-04-28T21:01:30.391Z,100557.58
2017-04-28T21:03:59.455Z,100563.28
2017-04-28T21:06:28.503Z,100553.58
2017-04-28T21:08:57.551Z,100556.52
2017-04-28T21:11:26.620Z,100559.77
2017-04-28T21:13:55.667Z,100563.34
2017-04-28T21:16:24.705Z,100557.75
2017-04-28T21:18:54.498Z,100563.64
2017-04-28T21:21:23.538Z,100558.37
2017-04-28T21:23:52.582Z,100556.02
2017-04-28T21:26:21.650Z,100564.04
2017-04-28T21:28:50.694Z,100563.09
2017-04-28T21:31:20.475Z,100564.42
2017-04-28T21:33:49.540Z,100559.15
2017-04-28T21:36:18.722Z,100557.14
2017-04-28T21:38:47.767Z,100567.81
2017-04-28T21:41:16.854Z,100572.67
2017-04-28T21:43:45.898Z,100575.73
2017-04-28T21:46:14.945Z,100579.74
2017-04-28T21:48:44.011Z,100575.41
2017-04-28T21:51:13.053Z,100584.28
2017-04-28T21:53:42.091Z,100587.03
2017-04-28T21:56:14.938Z,100593.47
2017-04-28T21:58:44.719Z,100595.27
2017-04-28T22:01:13.811Z,100590.52
2017-04-28T22:03:42.873Z,100587.14
2017-04-28T22:06:11.934Z,100594.11
2017-04-28T22:08:40.971Z,100591.05
2017-04-28T22:11:10.132Z,100591.67
2017-04-28T22:13:39.923Z,100592.73
2017-04-28T22:16:14.455Z,100587.88
2017-04-28T22:18:43.495Z,100593.58
2017-04-28T22:21:12.658Z,100593.37
2017-04-28T22:23:42.465Z,100597.62
2017-04-28T22:26:11.506Z,100592.87
2017-04-28T22:28:40.588Z,100591.60
2017-04-28T22:31:09.644Z,100599.52
2017-04-28T22:33:38.683Z,100601.95
2017-04-28T22:36:07.785Z,100592.87
2017-04-28T22:38:36.904Z,100599.52
2017-04-28T22:41:05.999Z,100593.81
2017-04-28T22:43:35.062Z,100595.50
2017-04-28T22:46:04.209Z,100599.55
2017-04-28T22:48:33.271Z,100593.94
2017-04-28T22:51:02.367Z,100602.70
2017-04-28T22:53:31.460Z,100597.66
2017-04-28T22:56:00.530Z,100603.25
2017-04-28T22:58:29.619Z,100609.16
2017-04-28T23:00:58.765Z,100611.89
2017-04-28T23:03:27.819Z,100611.07
2017-04-28T23:05:56.883Z,100614.76
2017-04-28T23:08:25.958Z,100614.96
2017-04-28T23:10:55.048Z,100608.66
2017-04-28T23:13:24.112Z,100612.13
2017-04-28T23:15:53.189Z,100617.83
2017-04-28T23:18:22.999Z,100611.07
2017-04-28T23:20:52.815Z,100606.11
2017-04-28T23:23:22.016Z,100609.38
2017-04-28T23:25:51.170Z,100619.61
2017-04-28T23:28:20.248Z,100617.80
2017-04-28T23:30:49.386Z,100625.11
2017-04-28T23:33:18.464Z,100619.61
2017-04-28T23:35:47.786Z,100624.56
2017-04-28T23:38:17.638Z,100617.16
2017-04-28T23:40:46.742Z,100619.30
2017-04-28T23:43:15.826Z,100618.55
2017-04-28T23:45:44.950Z,100616.43
2017-04-28T23:48:14.030Z,100615.99
2017-04-28T23:50:43.140Z,100620.97
2017-04-28T23:53:12.237Z,100620.43
2017-04-28T23:55:41.298Z,100622.85
2017-04-28T23:58:10.360Z,100618.09
